Time,TemperatureF,DewpointF,PressureIn,WindDirection,WindDirectionDegrees,WindSpeedMPH,WindSpeedGustMPH,Humidity,HourlyPrecipIn,Conditions,Clouds,dailyrainin,SoftwareType,DateUTC
2013-05-03 00:01:00,43.8,17.3,30.22,WSW,244,0.0,1.0,34,0.00,,---,0.00,VWS V13.01,2013-05-03 06:01:00,
2013-05-03 00:06:00,43.8,17.3,30.22,WSW,244,0.0,0.0,34,0.00,,---,0.00,VWS V13.01,2013-05-03 06:06:00,
2013-05-03 00:11:00,43.6,17.1,30.22,WSW,244,0.0,0.0,34,0.00,,---,0.00,VWS V13.01,2013-05-03 06:11:00,
2013-05-03 00:16:00,43.6,17.1,30.19,WSW,244,0.0,0.0,34,0.00,,---,0.00,VWS V13.01,2013-05-03 06:16:00,
2013-05-03 00:21:00,43.6,17.8,30.19,WSW,244,0.0,0.0,35,0.00,,---,0.00,VWS V13.01,2013-05-03 06:21:00,
2013-05-03 00:26:00,43.8,18.0,30.19,WSW,244,0.0,0.0,35,0.00,,---,0.00,VWS V13.01,2013-05-03 06:26:00,
2013-05-03 00:31:00,43.8,18.0,30.19,WSW,244,0.0,0.0,35,0.00,,---,0.00,VWS V13.01,2013-05-03 06:31:00,
2013-05-03 00:36:00,43.9,18.0,30.19,WSW,244,0.0,0.0,35,0.00,,---,0.00,VWS V13.01,2013-05-03 06:36:00,
2013-05-03 00:41:00,43.9,18.0,30.19,WSW,244,0.0,0.0,35,0.00,,---,0.00,VWS V13.01,2013-05-03 06:41:00,
2013-05-03 00:46:00,43.9,18.0,30.18,WSW,244,0.0,0.0,35,0.00,,---,0.00,VWS V13.01,2013-05-03 06:46:00,
2013-05-03 00:51:00,43.9,18.0,30.18,WSW,244,0.0,0.0,35,0.00,,---,0.00,VWS V13.01,2013-05-03 06:51:00,
2013-05-03 00:56:00,43.8,18.6,30.18,WSW,244,0.0,0.0,36,0.00,,---,0.00,VWS V13.01,2013-05-03 06:56:00,
2013-05-03 01:01:00,43.6,18.4,30.17,WSW,244,0.0,0.0,36,0.00,,---,0.00,VWS V13.01,2013-05-03 07:01:00,
2013-05-03 01:06:00,43.5,18.3,30.17,WSW,244,0.0,0.0,36,0.00,,---,0.00,VWS V13.01,2013-05-03 07:06:00,
2013-05-03 01:11:00,43.5,18.3,30.17,WSW,244,0.0,0.0,36,0.00,,---,0.00,VWS V13.01,2013-05-03 07:11:00,
2013-05-03 01:16:00,43.6,18.4,30.17,WSW,244,0.0,0.0,36,0.00,,---,0.00,VWS V13.01,2013-05-03 07:16:00,
2013-05-03 01:21:00,43.6,18.4,30.17,WSW,244,0.0,0.0,36,0.00,,---,0.00,VWS V13.01,2013-05-03 07:21:00,
2013-05-03 01:27:00,43.6,18.4,30.17,WSW,244,0.0,0.0,36,0.00,,---,0.00,VWS V13.01,2013-05-03 07:27:00,
2013-05-03 01:32:00,43.8,18.0,30.17,WSW,244,0.0,0.0,35,0.00,,---,0.00,VWS V13.01,2013-05-03 07:32:00,
2013-05-03 01:37:00,43.9,18.7,30.17,WSW,244,0.0,0.0,36,0.00,,---,0.00,VWS V13.01,2013-05-03 07:37:00,
2013-05-03 01:42:00,44.2,18.3,30.17,WSW,244,0.0,0.0,35,0.00,,---,0.00,VWS V13.01,2013-05-03 07:42:00,
2013-05-03 01:47:00,44.2,18.3,30.16,WSW,244,0.0,0.0,35,0.00,,---,0.00,VWS V13.01,2013-05-03 07:47:00,
2013-05-03 01:52:00,44.1,18.2,30.16,WSW,244,0.0,0.0,35,0.00,,---,0.00,VWS V13.01,2013-05-03 07:52:00,
2013-05-03 01:57:00,43.9,18.7,30.16,WSW,244,0.0,0.0,36,0.00,,---,0.00,VWS V13.01,2013-05-03 07:57:00,
2013-05-03 02:02:00,43.6,18.4,30.16,WSW,244,0.0,0.0,36,0.00,,---,0.00,VWS V13.01,2013-05-03 08:02:00,
2013-05-03 02:07:00,43.5,18.3,30.16,WSW,244,0.0,0.0,36,0.00,,---,0.00,VWS V13.01,2013-05-03 08:07:00,
2013-05-03 02:12:00,43.3,18.8,30.16,WSW,244,0.0,0.0,37,0.00,,---,0.00,VWS V13.01,2013-05-03 08:12:00,
2013-05-03 02:17:00,43.3,18.8,30.14,WSW,244,0.0,0.0,37,0.00,,---,0.00,VWS V13.01,2013-05-03 08:17:00,
2013-05-03 02:22:00,43.3,18.8,30.14,WSW,244,0.0,0.0,37,0.00,,---,0.00,VWS V13.01,2013-05-03 08:22:00,
2013-05-03 02:27:00,43.2,18.7,30.14,WSW,244,0.0,0.0,37,0.00,,---,0.00,VWS V13.01,2013-05-03 08:27:00,
2013-05-03 02:32:00,43.2,18.7,30.14,WSW,244,0.0,0.0,37,0.00,,---,0.00,VWS V13.01,2013-05-03 08:32:00,
2013-05-03 02:37:00,43.3,18.2,30.14,WSW,244,0.0,0.0,36,0.00,,---,0.00,VWS V13.01,2013-05-03 08:37:00,
2013-05-03 02:42:00,43.5,18.3,30.14,WSW,244,0.0,1.0,36,0.00,,---,0.00,VWS V13.01,2013-05-03 08:42:00,
2013-05-03 02:48:00,43.6,19.1,30.14,WSW,244,0.0,0.0,37,0.00,,---,0.00,VWS V13.01,2013-05-03 08:48:00,
2013-05-03 02:53:00,43.9,18.7,30.14,WSW,244,0.0,0.0,36,0.00,,---,0.00,VWS V13.01,2013-05-03 08:53:00,
2013-05-03 02:58:00,44.2,18.3,30.14,WSW,244,0.0,0.0,35,0.00,,---,0.00,VWS V13.01,2013-05-03 08:58:00,
2013-05-03 03:03:00,44.6,18.7,30.13,WSW,244,0.0,0.0,35,0.00,,---,0.00,VWS V13.01,2013-05-03 09:03:00,
2013-05-03 03:08:00,44.9,18.9,30.13,WSW,244,0.0,0.0,35,0.00,,---,0.00,VWS V13.01,2013-05-03 09:08:00,
2013-05-03 03:13:00,44.9,18.2,30.13,WSW,244,0.0,0.0,34,0.00,,---,0.00,VWS V13.01,2013-05-03 09:13:00,
2013-05-03 03:18:00,45.1,18.4,30.11,WSW,244,0.0,0.0,34,0.00,,---,0.00,VWS V13.01,2013-05-03 09:18:00,
2013-05-03 03:23:00,45.1,18.4,30.11,WSW,244,0.0,0.0,34,0.00,,---,0.00,VWS V13.01,2013-05-03 09:23:00,
2013-05-03 03:28:00,45.2,18.5,30.11,WSW,244,0.0,0.0,34,0.00,,---,0.00,VWS V13.01,2013-05-03 09:28:00,
2013-05-03 03:33:00,45.2,18.5,30.11,WSW,244,0.0,0.0,34,0.00,,---,0.00,VWS V13.01,2013-05-03 09:33:00,
2013-05-03 03:38:00,45.1,18.4,30.11,WSW,244,0.0,0.0,34,0.00,,---,0.00,VWS V13.01,2013-05-03 09:38:00,
2013-05-03 03:43:00,45.2,17.8,30.11,East,93,0.0,2.0,33,0.00,,---,0.00,VWS V13.01,2013-05-03 09:43:00,
2013-05-03 03:48:00,45.2,18.5,30.10,ENE,76,0.0,1.0,34,0.00,,---,0.00,VWS V13.01,2013-05-03 09:48:00,
2013-05-03 03:53:00,45.2,18.5,30.10,ENE,74,0.0,0.0,34,0.00,,---,0.00,VWS V13.01,2013-05-03 09:53:00,
2013-05-03 03:58:00,45.2,16.4,30.10,East,88,0.0,1.0,31,0.00,,---,0.00,VWS V13.01,2013-05-03 09:58:00,
2013-05-03 04:03:00,45.2,17.8,30.10,East,88,0.0,0.0,33,0.00,,---,0.00,VWS V13.01,2013-05-03 10:03:00,
2013-05-03 04:08:00,45.1,19.1,30.10,East,88,0.0,0.0,35,0.00,,---,0.00,VWS V13.01,2013-05-03 10:08:00,
2013-05-03 04:13:00,44.8,18.8,30.10,East,88,0.0,1.0,35,0.00,,---,0.00,VWS V13.01,2013-05-03 10:13:00,
2013-05-03 04:18:00,44.5,18.6,30.09,East,88,0.0,0.0,35,0.00,,---,0.00,VWS V13.01,2013-05-03 10:18:00,
2013-05-03 04:24:00,44.1,18.9,30.09,East,88,0.0,1.0,36,0.00,,---,0.00,VWS V13.01,2013-05-03 10:24:00,
2013-05-03 04:29:00,43.5,19.6,30.09,East,88,0.0,0.0,38,0.00,,---,0.00,VWS V13.01,2013-05-03 10:29:00,
2013-05-03 04:34:00,43.2,19.3,30.10,East,88,0.0,0.0,38,0.00,,---,0.00,VWS V13.01,2013-05-03 10:34:00,
2013-05-03 04:39:00,43.1,19.2,30.10,East,88,0.0,0.0,38,0.00,,---,0.00,VWS V13.01,2013-05-03 10:39:00,
2013-05-03 04:44:00,42.9,19.7,30.10,East,88,0.0,0.0,39,0.00,,---,0.00,VWS V13.01,2013-05-03 10:44:00,
2013-05-03 04:49:00,42.9,19.1,30.11,East,88,0.0,1.0,38,0.00,,---,0.00,VWS V13.01,2013-05-03 10:49:00,
2013-05-03 04:54:00,43.1,18.6,30.11,NNE,27,0.0,3.0,37,0.00,,---,0.00,VWS V13.01,2013-05-03 10:54:00,
2013-05-03 04:59:00,43.1,18.0,30.11,North,5,1.0,2.0,36,0.00,,---,0.00,VWS V13.01,2013-05-03 10:59:00,
2013-05-03 05:04:00,43.3,16.1,30.11,NE,45,0.0,3.0,33,0.00,,---,0.00,VWS V13.01,2013-05-03 11:04:00,
2013-05-03 05:09:00,43.6,17.8,30.11,ENE,71,0.0,0.0,35,0.00,,---,0.00,VWS V13.01,2013-05-03 11:09:00,
2013-05-03 05:14:00,43.9,18.0,30.11,NE,46,0.0,1.0,35,0.00,,---,0.00,VWS V13.01,2013-05-03 11:14:00,
2013-05-03 05:19:00,44.3,20.9,30.13,ENE,78,0.0,5.0,39,0.00,,---,0.00,VWS V13.01,2013-05-03 11:19:00,
2013-05-03 05:24:00,45.1,21.6,30.13,North,5,1.0,4.0,39,0.00,,---,0.00,VWS V13.01,2013-05-03 11:24:00,
2013-05-03 05:29:00,45.7,22.2,30.13,NW,323,1.0,3.0,39,0.00,,---,0.00,VWS V13.01,2013-05-03 11:29:00,
2013-05-03 05:34:00,46.2,22.6,30.11,ENE,66,0.0,0.0,39,0.00,,---,0.00,VWS V13.01,2013-05-03 11:34:00,
2013-05-03 05:39:00,46.8,21.3,30.11,ENE,72,1.0,6.0,36,0.00,,---,0.00,VWS V13.01,2013-05-03 11:39:00,
2013-05-03 05:44:00,47.4,23.1,30.11,NNE,13,0.0,8.0,38,0.00,,---,0.00,VWS V13.01,2013-05-03 11:44:00,
2013-05-03 05:49:00,48.2,23.8,30.11,ENE,57,0.0,4.0,38,0.00,,---,0.00,VWS V13.01,2013-05-03 11:49:00,
2013-05-03 05:55:00,48.6,22.9,30.11,WNW,301,2.0,6.0,36,0.00,,---,0.00,VWS V13.01,2013-05-03 11:55:00,
2013-05-03 06:00:00,48.9,22.5,30.11,ENE,76,1.0,2.0,35,0.00,,---,0.00,VWS V13.01,2013-05-03 12:00:00,
2013-05-03 06:05:00,49.2,22.7,30.10,NE,39,0.0,12.0,35,0.00,,---,0.00,VWS V13.01,2013-05-03 12:05:00,
2013-05-03 06:10:00,49.4,22.9,30.10,SW,231,0.0,6.0,35,0.00,,---,0.00,VWS V13.01,2013-05-03 12:10:00,
2013-05-03 06:15:00,49.6,23.8,30.10,SW,219,1.0,5.0,36,0.00,,---,0.00,VWS V13.01,2013-05-03 12:15:00,
2013-05-03 06:20:00,49.6,23.8,30.10,WSW,250,0.0,1.0,36,0.00,,---,0.00,VWS V13.01,2013-05-03 12:20:00,
2013-05-03 06:25:00,49.5,25.0,30.10,WSW,250,0.0,0.0,38,0.00,,---,0.00,VWS V13.01,2013-05-03 12:25:00,
2013-05-03 06:30:00,49.1,25.2,30.10,WSW,250,0.0,0.0,39,0.00,,---,0.00,VWS V13.01,2013-05-03 12:30:00,
2013-05-03 06:35:00,48.8,25.0,30.09,WSW,250,0.0,0.0,39,0.00,,---,0.00,VWS V13.01,2013-05-03 12:35:00,
2013-05-03 06:40:00,48.3,26.3,30.09,WSW,250,0.0,0.0,42,0.00,,---,0.00,VWS V13.01,2013-05-03 12:40:00,
2013-05-03 06:45:00,47.9,25.9,30.09,WSW,250,0.0,0.0,42,0.00,,---,0.00,VWS V13.01,2013-05-03 12:45:00,
2013-05-03 06:50:00,47.6,26.2,30.10,WSW,250,0.0,0.0,43,0.00,,---,0.00,VWS V13.01,2013-05-03 12:50:00,
2013-05-03 06:55:00,47.4,27.1,30.10,WSW,250,0.0,0.0,45,0.00,,---,0.00,VWS V13.01,2013-05-03 12:55:00,
2013-05-03 07:00:00,47.1,26.9,30.10,WSW,250,0.0,0.0,45,0.00,,---,0.00,VWS V13.01,2013-05-03 13:00:00,
2013-05-03 07:06:00,47.0,22.7,30.11,SW,227,0.0,0.0,38,0.00,,---,0.00,VWS V13.01,2013-05-03 13:06:00,
2013-05-03 07:11:00,46.8,24.9,30.11,SW,227,0.0,0.0,42,0.00,,---,0.00,VWS V13.01,2013-05-03 13:11:00,
2013-05-03 07:16:00,46.8,25.5,30.15,SW,227,0.0,0.0,43,0.00,,---,0.00,VWS V13.01,2013-05-03 13:16:00,
2013-05-03 07:21:00,46.7,24.8,30.15,SW,227,0.0,0.0,42,0.00,,---,0.00,VWS V13.01,2013-05-03 13:21:00,
2013-05-03 07:26:00,46.5,25.2,30.15,SW,227,0.0,0.0,43,0.00,,---,0.00,VWS V13.01,2013-05-03 13:26:00,
2013-05-03 07:31:00,46.5,27.4,30.16,SW,227,0.0,0.0,47,0.00,,---,0.00,VWS V13.01,2013-05-03 13:31:00,
2013-05-03 07:36:00,46.4,25.7,30.16,SW,227,0.0,1.0,44,0.00,,---,0.00,VWS V13.01,2013-05-03 13:36:00,
2013-05-03 07:41:00,46.4,20.9,30.16,SW,227,0.0,0.0,36,0.00,,---,0.00,VWS V13.01,2013-05-03 13:41:00,
2013-05-03 07:46:00,46.4,22.2,30.16,SW,227,0.0,0.0,38,0.00,,---,0.00,VWS V13.01,2013-05-03 13:46:00,
2013-05-03 07:51:00,46.5,23.5,30.16,SW,227,0.0,0.0,40,0.00,,---,0.00,VWS V13.01,2013-05-03 13:51:00,
2013-05-03 07:56:00,46.5,22.9,30.16,SW,227,0.0,0.0,39,0.00,,---,0.00,VWS V13.01,2013-05-03 13:56:00,
2013-05-03 08:01:00,46.7,23.1,30.16,SW,227,0.0,0.0,39,0.00,,---,0.00,VWS V13.01,2013-05-03 14:01:00,
2013-05-03 08:06:00,46.8,23.2,30.16,SW,227,0.0,0.0,39,0.00,,---,0.00,VWS V13.01,2013-05-03 14:06:00,
2013-05-03 08:11:00,46.8,22.5,30.16,South,175,1.0,1.0,38,0.00,,---,0.00,VWS V13.01,2013-05-03 14:11:00,
2013-05-03 08:16:00,47.3,24.8,30.18,SW,236,0.0,3.0,41,0.00,,---,0.00,VWS V13.01,2013-05-03 14:16:00,
2013-05-03 08:21:00,47.4,25.5,30.18,WSW,241,0.0,3.0,42,0.00,,---,0.00,VWS V13.01,2013-05-03 14:21:00,
2013-05-03 08:26:00,47.6,26.2,30.18,WSW,241,0.0,1.0,43,0.00,,---,0.00,VWS V13.01,2013-05-03 14:26:00,
2013-05-03 08:31:00,47.7,26.9,30.18,WSW,241,0.0,0.0,44,0.00,,---,0.00,VWS V13.01,2013-05-03 14:31:00,
2013-05-03 08:36:00,47.9,26.5,30.18,WSW,241,0.0,0.0,43,0.00,,---,0.00,VWS V13.01,2013-05-03 14:36:00,
2013-05-03 08:41:00,48.0,27.1,30.18,WSW,241,0.0,0.0,44,0.00,,---,0.00,VWS V13.01,2013-05-03 14:41:00,
2013-05-03 08:46:00,48.2,27.9,30.18,WSW,241,0.0,0.0,45,0.00,,---,0.00,VWS V13.01,2013-05-03 14:46:00,
2013-05-03 08:51:00,48.5,27.0,30.18,WSW,241,0.0,1.0,43,0.00,,---,0.00,VWS V13.01,2013-05-03 14:51:00,
2013-05-03 08:56:00,48.6,28.2,30.18,WSW,241,0.0,1.0,45,0.00,,---,0.00,VWS V13.01,2013-05-03 14:56:00,
2013-05-03 09:02:00,48.8,28.4,30.16,WSW,241,0.0,1.0,45,0.00,,---,0.00,VWS V13.01,2013-05-03 15:02:00,
2013-05-03 09:07:00,49.1,27.6,30.16,WSW,241,0.0,0.0,43,0.00,,---,0.00,VWS V13.01,2013-05-03 15:07:00,
2013-05-03 09:12:00,49.2,27.7,30.16,WSW,241,0.0,0.0,43,0.00,,---,0.00,VWS V13.01,2013-05-03 15:12:00,
2013-05-03 09:17:00,49.5,28.0,30.17,NNE,16,0.0,1.0,43,0.00,,---,0.00,VWS V13.01,2013-05-03 15:17:00,
2013-05-03 09:22:00,49.9,27.7,30.17,NNE,16,0.0,0.0,42,0.00,,---,0.00,VWS V13.01,2013-05-03 15:22:00,
2013-05-03 09:27:00,50.2,28.6,30.17,NNE,16,0.0,0.0,43,0.00,,---,0.00,VWS V13.01,2013-05-03 15:27:00,
2013-05-03 09:32:00,50.4,27.6,30.17,NNE,16,0.0,1.0,41,0.00,,---,0.00,VWS V13.01,2013-05-03 15:32:00,
2013-05-03 09:37:00,50.8,28.0,30.17,West,275,2.0,3.0,41,0.00,,---,0.00,VWS V13.01,2013-05-03 15:37:00,
2013-05-03 09:42:00,50.8,28.5,30.17,WSW,239,0.0,1.0,42,0.00,,---,0.00,VWS V13.01,2013-05-03 15:42:00,
2013-05-03 09:47:00,51.0,28.1,30.15,WSW,250,0.0,1.0,41,0.00,,---,0.00,VWS V13.01,2013-05-03 15:47:00,
2013-05-03 09:52:00,51.3,27.2,30.15,East,84,0.0,0.0,39,0.00,,---,0.00,VWS V13.01,2013-05-03 15:52:00,
2013-05-03 09:57:00,51.9,26.5,30.15,East,82,0.0,1.0,37,0.00,,---,0.00,VWS V13.01,2013-05-03 15:57:00,
2013-05-03 10:02:00,52.6,25.8,30.15,East,84,0.0,1.0,35,0.00,,---,0.00,VWS V13.01,2013-05-03 16:02:00,
2013-05-03 10:08:00,52.3,25.5,30.15,WSW,244,0.0,4.0,35,0.00,,---,0.00,VWS V13.01,2013-05-03 16:08:00,
2013-05-03 10:13:00,51.9,27.1,30.15,NNE,22,0.0,0.0,38,0.00,,---,0.00,VWS V13.01,2013-05-03 16:13:00,
2013-05-03 10:18:00,51.7,26.3,30.16,North,360,0.0,2.0,37,0.00,,---,0.00,VWS V13.01,2013-05-03 16:18:00,
2013-05-03 10:23:00,51.9,25.1,30.16,NW,306,0.0,1.0,35,0.00,,---,0.00,VWS V13.01,2013-05-03 16:23:00,
2013-05-03 10:28:00,51.9,27.1,30.16,NW,306,0.0,0.0,38,0.00,,---,0.00,VWS V13.01,2013-05-03 16:28:00,
2013-05-03 10:33:00,52.0,26.5,30.16,North,360,0.0,3.0,37,0.00,,---,0.00,VWS V13.01,2013-05-03 16:33:00,
2013-05-03 10:38:00,52.0,25.9,30.16,WSW,257,0.0,1.0,36,0.00,,---,0.00,VWS V13.01,2013-05-03 16:38:00,
2013-05-03 10:43:00,51.7,26.3,30.16,North,355,0.0,3.0,37,0.00,,---,0.00,VWS V13.01,2013-05-03 16:43:00,
2013-05-03 10:48:00,51.7,26.3,30.16,NNW,346,3.0,4.0,37,0.00,,---,0.00,VWS V13.01,2013-05-03 16:48:00,
2013-05-03 10:53:00,51.9,25.8,30.16,NE,53,1.0,4.0,36,0.00,,---,0.00,VWS V13.01,2013-05-03 16:53:00,
2013-05-03 10:58:00,52.3,26.8,30.16,West,276,0.0,5.0,37,0.00,,---,0.00,VWS V13.01,2013-05-03 16:58:00,
2013-05-03 11:03:00,52.6,25.8,30.16,West,259,2.0,3.0,35,0.00,,---,0.00,VWS V13.01,2013-05-03 17:03:00,
2013-05-03 11:08:00,52.8,27.3,30.16,NE,46,0.0,2.0,37,0.00,,---,0.00,VWS V13.01,2013-05-03 17:08:00,
2013-05-03 11:13:00,53.3,26.4,30.16,West,273,0.0,1.0,35,0.00,,---,0.00,VWS V13.01,2013-05-03 17:13:00,
2013-05-03 11:18:00,52.9,26.7,30.17,West,275,3.0,4.0,36,0.00,,---,0.00,VWS V13.01,2013-05-03 17:18:00,
2013-05-03 11:23:00,52.2,25.4,30.17,East,87,0.0,1.0,35,0.00,,---,0.00,VWS V13.01,2013-05-03 17:23:00,
2013-05-03 11:28:00,52.2,26.7,30.17,NNW,346,0.0,1.0,37,0.00,,---,0.00,VWS V13.01,2013-05-03 17:28:00,
2013-05-03 11:34:00,52.0,24.5,30.16,WNW,290,0.0,1.0,34,0.00,,---,0.00,VWS V13.01,2013-05-03 17:34:00,
2013-05-03 11:39:00,51.9,25.8,30.16,South,179,0.0,2.0,36,0.00,,---,0.00,VWS V13.01,2013-05-03 17:39:00,
2013-05-03 11:44:00,52.3,24.8,30.16,NNE,33,1.0,7.0,34,0.00,,---,0.00,VWS V13.01,2013-05-03 17:44:00,
2013-05-03 11:49:00,53.1,24.8,30.16,North,5,0.0,5.0,33,0.00,,---,0.00,VWS V13.01,2013-05-03 17:49:00,
2013-05-03 11:54:00,53.3,23.5,30.16,North,355,4.0,6.0,31,0.00,,---,0.00,VWS V13.01,2013-05-03 17:54:00,
2013-05-03 11:59:00,53.5,23.6,30.16,NW,309,0.0,5.0,31,0.00,,---,0.00,VWS V13.01,2013-05-03 17:59:00,
2013-05-03 12:04:00,53.3,24.2,30.16,WNW,292,2.0,9.0,32,0.00,,---,0.00,VWS V13.01,2013-05-03 18:04:00,
2013-05-03 12:09:00,52.9,26.0,30.16,West,281,0.0,5.0,35,0.00,,---,0.00,VWS V13.01,2013-05-03 18:09:00,
2013-05-03 12:14:00,53.2,25.6,30.16,West,265,1.0,6.0,34,0.00,,---,0.00,VWS V13.01,2013-05-03 18:14:00,
2013-05-03 12:19:00,53.3,25.0,30.15,NNE,24,0.0,3.0,33,0.00,,---,0.00,VWS V13.01,2013-05-03 18:19:00,
2013-05-03 12:24:00,53.6,25.9,30.15,South,180,2.0,5.0,34,0.00,,---,0.00,VWS V13.01,2013-05-03 18:24:00,
2013-05-03 12:29:00,53.9,25.5,30.15,NNW,333,0.0,3.0,33,0.00,,---,0.00,VWS V13.01,2013-05-03 18:29:00,
2013-05-03 12:34:00,54.1,25.6,30.15,West,259,0.0,7.0,33,0.00,,---,0.00,VWS V13.01,2013-05-03 18:34:00,
2013-05-03 12:39:00,54.2,25.0,30.15,SW,227,3.0,4.0,32,0.00,,---,0.00,VWS V13.01,2013-05-03 18:39:00,
2013-05-03 12:44:00,53.9,26.2,30.15,NE,38,3.0,3.0,34,0.00,,---,0.00,VWS V13.01,2013-05-03 18:44:00,
2013-05-03 12:49:00,54.1,27.1,30.14,NE,55,0.0,4.0,35,0.00,,---,0.00,VWS V13.01,2013-05-03 18:49:00,
2013-05-03 12:54:00,54.4,27.3,30.14,NW,320,0.0,5.0,35,0.00,,---,0.00,VWS V13.01,2013-05-03 18:54:00,
2013-05-03 13:00:00,54.5,27.4,30.14,NNE,19,0.0,2.0,35,0.00,,---,0.00,VWS V13.01,2013-05-03 19:00:00,
2013-05-03 13:05:00,54.5,27.4,30.14,SW,221,0.0,2.0,35,0.00,,---,0.00,VWS V13.01,2013-05-03 19:05:00,
2013-05-03 13:10:00,54.2,27.2,30.14,WSW,254,3.0,5.0,35,0.00,,---,0.00,VWS V13.01,2013-05-03 19:10:00,
2013-05-03 13:15:00,53.9,28.9,30.14,East,90,0.0,1.0,38,0.00,,---,0.00,VWS V13.01,2013-05-03 19:15:00,
2013-05-03 13:20:00,53.8,26.8,30.14,WSW,237,0.0,4.0,35,0.00,,---,0.00,VWS V13.01,2013-05-03 19:20:00,
2013-05-03 13:25:00,53.5,27.9,30.14,North,9,0.0,3.0,37,0.00,,---,0.00,VWS V13.01,2013-05-03 19:25:00,
2013-05-03 13:30:00,53.3,27.0,30.14,East,96,0.0,5.0,36,0.00,,---,0.00,VWS V13.01,2013-05-03 19:30:00,
2013-05-03 13:35:00,53.2,27.0,30.15,SW,223,1.0,7.0,36,0.00,,---,0.00,VWS V13.01,2013-05-03 19:35:00,
2013-05-03 13:40:00,52.9,28.6,30.15,NNE,24,1.0,4.0,39,0.00,,---,0.00,VWS V13.01,2013-05-03 19:40:00,
2013-05-03 13:45:00,53.3,28.4,30.15,West,261,0.0,6.0,38,0.00,,---,0.00,VWS V13.01,2013-05-03 19:45:00,
2013-05-03 13:50:00,53.6,27.3,30.15,East,87,0.0,4.0,36,0.00,,---,0.00,VWS V13.01,2013-05-03 19:50:00,
2013-05-03 13:55:00,53.9,27.6,30.15,East,84,0.0,1.0,36,0.00,,---,0.00,VWS V13.01,2013-05-03 19:55:00,
2013-05-03 14:00:00,53.6,28.0,30.15,NNW,348,0.0,4.0,37,0.00,,---,0.00,VWS V13.01,2013-05-03 20:00:00,
2013-05-03 14:05:00,53.8,28.2,30.13,NNE,12,0.0,1.0,37,0.00,,---,0.00,VWS V13.01,2013-05-03 20:05:00,
2013-05-03 14:10:00,53.6,27.3,30.13,SE,142,0.0,3.0,36,0.00,,---,0.00,VWS V13.01,2013-05-03 20:10:00,
2013-05-03 14:15:00,53.5,28.5,30.13,NW,313,0.0,6.0,38,0.00,,---,0.00,VWS V13.01,2013-05-03 20:15:00,
2013-05-03 14:20:00,53.2,29.5,30.13,WSW,252,0.0,2.0,40,0.00,,---,0.00,VWS V13.01,2013-05-03 20:20:00,
2013-05-03 14:26:00,52.8,27.9,30.13,SW,232,0.0,10.0,38,0.00,,---,0.00,VWS V13.01,2013-05-03 20:26:00,
2013-05-03 14:31:00,52.5,28.9,30.14,WSW,251,5.0,5.0,40,0.00,,---,0.00,VWS V13.01,2013-05-03 20:31:00,
2013-05-03 14:36:00,52.2,29.8,30.14,SW,222,1.0,9.0,42,0.00,,---,0.00,VWS V13.01,2013-05-03 20:36:00,
2013-05-03 14:41:00,52.2,29.2,30.14,WSW,243,0.0,2.0,41,0.00,,---,0.00,VWS V13.01,2013-05-03 20:41:00,
2013-05-03 14:46:00,52.2,30.4,30.15,SSE,157,1.0,3.0,43,0.00,,---,0.00,VWS V13.01,2013-05-03 20:46:00,
2013-05-03 14:51:00,51.7,31.6,30.15,East,98,0.0,5.0,46,0.00,,---,0.00,VWS V13.01,2013-05-03 20:51:00,
2013-05-03 14:56:00,51.3,32.3,30.15,SW,226,3.0,4.0,48,0.00,,---,0.00,VWS V13.01,2013-05-03 20:56:00,
2013-05-03 15:01:00,50.8,33.8,30.15,SW,230,1.0,7.0,52,0.00,,---,0.00,VWS V13.01,2013-05-03 21:01:00,
2013-05-03 15:06:00,50.7,33.7,30.15,West,281,3.0,6.0,52,0.00,,---,0.00,VWS V13.01,2013-05-03 21:06:00,
2013-05-03 15:11:00,50.7,34.2,30.15,WSW,250,2.0,6.0,53,0.00,,---,0.00,VWS V13.01,2013-05-03 21:11:00,
2013-05-03 15:16:00,50.8,34.3,30.15,WSW,244,0.0,10.0,53,0.00,,---,0.00,VWS V13.01,2013-05-03 21:16:00,
2013-05-03 15:21:00,50.5,34.0,30.15,South,185,4.0,6.0,53,0.00,,---,0.00,VWS V13.01,2013-05-03 21:21:00,
2013-05-03 15:26:00,50.1,34.6,30.15,WSW,248,0.0,7.0,55,0.00,,---,0.00,VWS V13.01,2013-05-03 21:26:00,
2013-05-03 15:31:00,49.9,34.4,30.16,West,270,1.0,5.0,55,0.00,,---,0.00,VWS V13.01,2013-05-03 21:31:00,
2013-05-03 15:36:00,49.8,36.1,30.16,NE,39,3.0,10.0,59,0.00,,---,0.00,VWS V13.01,2013-05-03 21:36:00,
2013-05-03 15:41:00,49.1,36.7,30.16,SSW,207,1.0,6.0,62,0.00,,---,0.00,VWS V13.01,2013-05-03 21:41:00,
2013-05-03 15:46:00,48.5,38.4,30.17,NNW,337,0.0,5.0,68,0.00,,---,0.00,VWS V13.01,2013-05-03 21:46:00,
2013-05-03 15:52:00,47.3,38.4,30.17,SSW,211,0.0,5.0,71,0.01,,---,0.01,VWS V13.01,2013-05-03 21:52:00,
2013-05-03 15:57:00,45.8,38.7,30.17,West,266,0.0,2.0,76,0.01,,---,0.01,VWS V13.01,2013-05-03 21:57:00,
2013-05-03 16:01:00,45.2,39.1,30.19,West,266,0.0,0.0,79,0.01,,---,0.01,VWS V13.01,2013-05-03 22:01:00,
2013-05-03 16:07:00,44.8,39.0,30.19,WNW,285,0.0,2.0,80,0.01,,---,0.01,VWS V13.01,2013-05-03 22:07:00,
2013-05-03 16:12:00,44.5,39.4,30.19,West,275,1.0,5.0,82,0.01,,---,0.01,VWS V13.01,2013-05-03 22:12:00,
2013-05-03 16:17:00,44.5,39.4,30.20,SSW,212,0.0,5.0,82,0.01,,---,0.01,VWS V13.01,2013-05-03 22:17:00,
2013-05-03 16:22:00,44.5,39.4,30.20,West,266,0.0,7.0,82,0.01,,---,0.01,VWS V13.01,2013-05-03 22:22:00,
2013-05-03 16:27:00,44.6,39.5,30.20,West,263,0.0,3.0,82,0.01,,---,0.01,VWS V13.01,2013-05-03 22:27:00,
2013-05-03 16:32:00,44.6,39.5,30.20,SW,226,3.0,3.0,82,0.01,,---,0.01,VWS V13.01,2013-05-03 22:32:00,
2013-05-03 16:37:00,44.8,39.3,30.20,NNW,332,0.0,4.0,81,0.01,,---,0.01,VWS V13.01,2013-05-03 22:37:00,
2013-05-03 16:42:00,44.9,39.8,30.20,WSW,243,0.0,3.0,82,0.01,,---,0.01,VWS V13.01,2013-05-03 22:42:00,
2013-05-03 16:47:00,45.1,39.0,30.20,WSW,238,2.0,3.0,79,0.01,,---,0.01,VWS V13.01,2013-05-03 22:47:00,
2013-05-03 16:52:00,45.2,38.8,30.20,South,169,0.0,1.0,78,0.01,,---,0.01,VWS V13.01,2013-05-03 22:52:00,
2013-05-03 16:57:00,45.2,37.4,30.20,WSW,246,2.0,7.0,74,0.00,,---,0.01,VWS V13.01,2013-05-03 22:57:00,
2013-05-03 17:02:00,45.4,38.0,30.20,WSW,244,1.0,6.0,75,0.00,,---,0.01,VWS V13.01,2013-05-03 23:02:00,
2013-05-03 17:07:00,45.4,37.3,30.20,West,263,3.0,6.0,73,0.00,,---,0.01,VWS V13.01,2013-05-03 23:07:00,
2013-05-03 17:12:00,45.1,36.6,30.20,WSW,246,1.0,5.0,72,0.00,,---,0.01,VWS V13.01,2013-05-03 23:12:00,
2013-05-03 17:17:00,44.9,37.5,30.18,WSW,250,0.0,5.0,75,0.00,,---,0.01,VWS V13.01,2013-05-03 23:17:00,
2013-05-03 17:23:00,44.8,36.3,30.18,WSW,246,6.0,8.0,72,0.00,,---,0.01,VWS V13.01,2013-05-03 23:23:00,
2013-05-03 17:28:00,44.5,36.0,30.18,WSW,243,0.0,4.0,72,0.00,,---,0.01,VWS V13.01,2013-05-03 23:28:00,
2013-05-03 17:33:00,44.5,36.7,30.19,SW,215,0.0,6.0,74,0.00,,---,0.01,VWS V13.01,2013-05-03 23:33:00,
2013-05-03 17:38:00,44.6,36.8,30.19,West,259,4.0,10.0,74,0.00,,---,0.01,VWS V13.01,2013-05-03 23:38:00,
2013-05-03 17:43:00,44.5,36.4,30.19,WSW,250,3.0,11.0,73,0.00,,---,0.01,VWS V13.01,2013-05-03 23:43:00,
2013-05-03 17:48:00,44.3,36.5,30.20,South,173,2.0,5.0,74,0.00,,---,0.01,VWS V13.01,2013-05-03 23:48:00,
2013-05-03 17:53:00,44.5,36.7,30.20,WSW,243,2.0,4.0,74,0.00,,---,0.01,VWS V13.01,2013-05-03 23:53:00,
2013-05-03 17:58:00,44.5,36.7,30.20,WSW,240,3.0,4.0,74,0.00,,---,0.01,VWS V13.01,2013-05-03 23:58:00,
2013-05-03 18:03:00,44.3,36.2,30.20,WSW,238,1.0,6.0,73,0.00,,---,0.01,VWS V13.01,2013-05-04 00:03:00,
2013-05-03 18:08:00,44.1,36.7,30.20,ENE,71,2.0,4.0,75,0.00,,---,0.01,VWS V13.01,2013-05-04 00:08:00,
2013-05-03 18:13:00,43.9,36.8,30.20,West,262,0.0,5.0,76,0.00,,---,0.01,VWS V13.01,2013-05-04 00:13:00,
2013-05-03 18:18:00,43.8,37.1,30.22,East,83,1.0,2.0,77,0.00,,---,0.01,VWS V13.01,2013-05-04 00:18:00,
2013-05-03 18:24:00,43.6,36.9,30.22,WSW,258,0.0,1.0,77,0.00,,---,0.01,VWS V13.01,2013-05-04 00:24:00,
2013-05-03 18:29:00,43.3,36.3,30.22,SSE,157,0.0,4.0,76,0.00,,---,0.01,VWS V13.01,2013-05-04 00:29:00,
2013-05-03 18:34:00,43.2,36.8,30.22,SSE,160,0.0,2.0,78,0.00,,---,0.01,VWS V13.01,2013-05-04 00:34:00,
2013-05-03 18:39:00,43.2,36.8,30.22,WSW,242,0.0,3.0,78,0.00,,---,0.01,VWS V13.01,2013-05-04 00:39:00,
2013-05-03 18:44:00,43.1,37.0,30.22,SW,234,0.0,3.0,79,0.00,,---,0.01,VWS V13.01,2013-05-04 00:44:00,
2013-05-03 18:49:00,42.9,37.2,30.22,WSW,237,0.0,1.0,80,0.01,,---,0.02,VWS V13.01,2013-05-04 00:49:00,
2013-05-03 18:54:00,42.9,36.8,30.22,West,263,0.0,3.0,79,0.01,,---,0.02,VWS V13.01,2013-05-04 00:54:00,
2013-05-03 18:59:00,42.9,36.5,30.22,WSW,251,2.0,2.0,78,0.01,,---,0.02,VWS V13.01,2013-05-04 00:59:00,
2013-05-03 19:04:00,42.9,36.2,30.23,WSW,247,1.0,5.0,77,0.01,,---,0.02,VWS V13.01,2013-05-04 01:04:00,
2013-05-03 19:09:00,42.8,36.1,30.23,South,191,2.0,4.0,77,0.01,,---,0.02,VWS V13.01,2013-05-04 01:09:00,
2013-05-03 19:15:00,42.6,36.2,30.23,SSW,199,1.0,2.0,78,0.01,,---,0.02,VWS V13.01,2013-05-04 01:15:00,
2013-05-03 19:20:00,42.6,36.2,30.23,WSW,254,0.0,2.0,78,0.01,,---,0.02,VWS V13.01,2013-05-04 01:20:00,
2013-05-03 19:25:00,42.5,36.5,30.23,WSW,244,0.0,0.0,79,0.01,,---,0.02,VWS V13.01,2013-05-04 01:25:00,
2013-05-03 19:30:00,42.3,36.6,30.23,WSW,244,0.0,0.0,80,0.01,,---,0.02,VWS V13.01,2013-05-04 01:30:00,
2013-05-03 19:35:00,42.3,36.9,30.24,NNE,28,0.0,0.0,81,0.01,,---,0.02,VWS V13.01,2013-05-04 01:35:00,
2013-05-03 19:40:00,42.2,36.8,30.24,WNW,284,2.0,2.0,81,0.01,,---,0.02,VWS V13.01,2013-05-04 01:40:00,
2013-05-03 19:45:00,42.1,37.3,30.24,WNW,284,0.0,0.0,83,0.01,,---,0.02,VWS V13.01,2013-05-04 01:45:00,
2013-05-03 19:50:00,41.9,37.1,30.24,WNW,284,0.0,0.0,83,0.01,,---,0.02,VWS V13.01,2013-05-04 01:50:00,
2013-05-03 19:55:00,41.9,37.4,30.24,WNW,284,0.0,1.0,84,0.00,,---,0.02,VWS V13.01,2013-05-04 01:55:00,
2013-05-03 20:00:00,41.6,37.1,30.24,WNW,284,0.0,0.0,84,0.01,,---,0.03,VWS V13.01,2013-05-04 02:00:00,
2013-05-03 20:05:00,41.5,37.3,30.24,WNW,283,0.0,1.0,85,0.01,,---,0.03,VWS V13.01,2013-05-04 02:05:00,
2013-05-03 20:10:00,41.2,37.0,30.24,North,350,0.0,0.0,85,0.01,,---,0.03,VWS V13.01,2013-05-04 02:10:00,
2013-05-03 20:15:00,41.2,37.3,30.24,North,350,0.0,0.0,86,0.01,,---,0.03,VWS V13.01,2013-05-04 02:15:00,
2013-05-03 20:20:00,41.1,37.2,30.23,North,350,0.0,0.0,86,0.02,,---,0.04,VWS V13.01,2013-05-04 02:20:00,
2013-05-03 20:25:00,41.1,37.5,30.23,North,350,0.0,0.0,87,0.02,,---,0.04,VWS V13.01,2013-05-04 02:25:00,
2013-05-03 20:30:00,40.9,37.3,30.23,North,350,0.0,0.0,87,0.02,,---,0.04,VWS V13.01,2013-05-04 02:30:00,
2013-05-03 20:35:00,40.8,37.2,30.23,North,350,0.0,0.0,87,0.03,,---,0.05,VWS V13.01,2013-05-04 02:35:00,
2013-05-03 20:41:00,40.6,37.0,30.23,North,350,0.0,1.0,87,0.03,,---,0.05,VWS V13.01,2013-05-04 02:41:00,
2013-05-03 20:46:00,40.6,37.3,30.23,NE,34,0.0,2.0,88,0.03,,---,0.05,VWS V13.01,2013-05-04 02:46:00,
2013-05-03 20:51:00,40.6,37.3,30.23,NE,34,0.0,1.0,88,0.04,,---,0.06,VWS V13.01,2013-05-04 02:51:00,
2013-05-03 20:56:00,40.5,37.2,30.23,West,279,0.0,3.0,88,0.04,,---,0.06,VWS V13.01,2013-05-04 02:56:00,
2013-05-03 21:01:00,40.3,37.0,30.24,West,279,0.0,0.0,88,0.03,,---,0.06,VWS V13.01,2013-05-04 03:01:00,
2013-05-03 21:06:00,40.2,36.9,30.24,West,279,0.0,0.0,88,0.04,,---,0.07,VWS V13.01,2013-05-04 03:06:00,
2013-05-03 21:11:00,40.2,36.9,30.24,West,279,0.0,0.0,88,0.04,,---,0.07,VWS V13.01,2013-05-04 03:11:00,
2013-05-03 21:16:00,40.1,37.1,30.23,West,279,0.0,0.0,89,0.04,,---,0.07,VWS V13.01,2013-05-04 03:16:00,
2013-05-03 21:21:00,40.1,37.1,30.23,West,273,0.0,2.0,89,0.05,,---,0.08,VWS V13.01,2013-05-04 03:21:00,
2013-05-03 21:26:00,40.1,37.1,30.23,West,270,0.0,0.0,89,0.04,,---,0.08,VWS V13.01,2013-05-04 03:26:00,
2013-05-03 21:31:00,39.9,36.9,30.24,West,269,0.0,1.0,89,0.05,,---,0.09,VWS V13.01,2013-05-04 03:31:00,
2013-05-03 21:36:00,39.9,36.9,30.24,West,272,0.0,1.0,89,0.05,,---,0.09,VWS V13.01,2013-05-04 03:36:00,
2013-05-03 21:41:00,39.9,36.9,30.24,West,270,0.0,2.0,89,0.04,,---,0.09,VWS V13.01,2013-05-04 03:41:00,
2013-05-03 21:46:00,39.8,36.8,30.24,West,270,0.0,0.0,89,0.05,,---,0.10,VWS V13.01,2013-05-04 03:46:00,
2013-05-03 21:51:00,39.8,37.1,30.24,NNW,329,0.0,2.0,90,0.05,,---,0.10,VWS V13.01,2013-05-04 03:51:00,
2013-05-03 21:57:00,39.8,37.1,30.24,NNW,329,0.0,0.0,90,0.05,,---,0.11,VWS V13.01,2013-05-04 03:57:00,
2013-05-03 22:01:00,39.8,37.1,30.24,NNW,331,0.0,0.0,90,0.05,,---,0.11,VWS V13.01,2013-05-04 04:01:00,
2013-05-03 22:02:00,39.8,37.1,30.24,NNW,331,0.0,0.0,90,0.05,,---,0.11,VWS V13.01,2013-05-04 04:02:00,
2013-05-03 22:04:00,39.8,37.1,30.24,NNW,331,0.0,0.0,90,0.05,,---,0.12,VWS V13.01,2013-05-04 04:04:00,
2013-05-03 22:06:00,39.8,37.1,30.24,NNW,331,0.0,0.0,90,0.06,,---,0.12,VWS V13.01,2013-05-04 04:06:00,
2013-05-03 22:11:00,39.8,37.1,30.24,NNW,331,0.0,0.0,90,0.06,,---,0.13,VWS V13.01,2013-05-04 04:11:00,
2013-05-03 22:16:00,39.6,36.9,30.24,NNW,331,0.0,0.0,90,0.06,,---,0.13,VWS V13.01,2013-05-04 04:16:00,
2013-05-03 22:21:00,39.6,36.9,30.24,NNW,331,0.0,0.0,90,0.06,,---,0.14,VWS V13.01,2013-05-04 04:21:00,
2013-05-03 22:26:00,39.6,36.9,30.24,NNW,331,0.0,0.0,90,0.06,,---,0.14,VWS V13.01,2013-05-04 04:26:00,
2013-05-03 22:31:00,39.6,36.9,30.24,NNW,331,0.0,0.0,90,0.06,,---,0.15,VWS V13.01,2013-05-04 04:31:00,
2013-05-03 22:36:00,39.6,36.9,30.24,West,273,0.0,9.0,90,0.06,,---,0.15,VWS V13.01,2013-05-04 04:36:00,
2013-05-03 22:41:00,39.5,36.8,30.24,WSW,252,0.0,3.0,90,0.06,,---,0.15,VWS V13.01,2013-05-04 04:41:00,
2013-05-03 22:47:00,39.5,36.8,30.24,WSW,238,0.0,1.0,90,0.06,,---,0.15,VWS V13.01,2013-05-04 04:47:00,
2013-05-03 22:52:00,39.3,36.6,30.24,WSW,238,0.0,0.0,90,0.05,,---,0.15,VWS V13.01,2013-05-04 04:52:00,
2013-05-03 22:57:00,39.3,36.6,30.24,WSW,238,0.0,0.0,90,0.05,,---,0.15,VWS V13.01,2013-05-04 04:57:00,
2013-05-03 23:02:00,39.2,36.5,30.24,SW,227,0.0,0.0,90,0.05,,---,0.16,VWS V13.01,2013-05-04 05:02:00,
2013-05-03 23:07:00,39.2,36.5,30.24,WSW,247,0.0,1.0,90,0.05,,---,0.16,VWS V13.01,2013-05-04 05:07:00,
2013-05-03 23:12:00,39.1,36.4,30.24,WSW,247,0.0,0.0,90,0.04,,---,0.16,VWS V13.01,2013-05-04 05:12:00,
2013-05-03 23:17:00,39.1,36.4,30.24,WSW,247,0.0,0.0,90,0.03,,---,0.16,VWS V13.01,2013-05-04 05:17:00,
2013-05-03 23:22:00,38.9,36.2,30.24,WSW,247,0.0,0.0,90,0.04,,---,0.17,VWS V13.01,2013-05-04 05:22:00,
2013-05-03 23:27:00,38.9,36.2,30.24,WSW,247,0.0,0.0,90,0.03,,---,0.17,VWS V13.01,2013-05-04 05:27:00,
2013-05-03 23:32:00,38.8,36.1,30.24,WSW,247,0.0,1.0,90,0.03,,---,0.17,VWS V13.01,2013-05-04 05:32:00,
2013-05-03 23:37:00,38.8,36.1,30.24,WSW,247,0.0,0.0,90,0.02,,---,0.17,VWS V13.01,2013-05-04 05:37:00,
2013-05-03 23:42:00,38.8,36.1,30.24,WSW,247,0.0,0.0,90,0.03,,---,0.18,VWS V13.01,2013-05-04 05:42:00,
2013-05-03 23:47:00,38.8,36.1,30.24,WSW,247,0.0,0.0,90,0.03,,---,0.18,VWS V13.01,2013-05-04 05:47:00,
2013-05-03 23:52:00,38.8,36.1,30.24,WSW,247,0.0,0.0,90,0.04,,---,0.19,VWS V13.01,2013-05-04 05:52:00,
2013-05-03 23:57:00,38.6,35.9,30.24,WSW,247,0.0,0.0,90,0.04,,---,0.19,VWS V13.01,2013-05-04 05:57:00,